sensor_id;sensor_type;location;lat;lon;timestamp;P1;durP1;ratioP1;P2;durP2;ratioP2
19525;SDS011;9907;42.676;26.348;2023-12-28T00:00:47;7.47;;;4.47;;
19525;SDS011;9907;42.676;26.348;2023-12-28T00:03:13;7.60;;;4.60;;
19525;SDS011;9907;42.676;26.348;2023-12-28T00:05:38;8.20;;;5.10;;
19525;SDS011;9907;42.676;26.348;2023-12-28T00:08:03;6.93;;;4.50;;
19525;SDS011;9907;42.676;26.348;2023-12-28T00:10:29;5.50;;;4.23;;
19525;SDS011;9907;42.676;26.348;2023-12-28T00:12:54;6.03;;;4.37;;
19525;SDS011;9907;42.676;26.348;2023-12-28T00:15:20;6.37;;;3.83;;
19525;SDS011;9907;42.676;26.348;2023-12-28T00:17:46;4.33;;;3.60;;
19525;SDS011;9907;42.676;26.348;2023-12-28T00:20:12;5.20;;;3.47;;
19525;SDS011;9907;42.676;26.348;2023-12-28T00:22:37;5.17;;;3.37;;
19525;SDS011;9907;42.676;26.348;2023-12-28T00:25:06;4.70;;;3.83;;
19525;SDS011;9907;42.676;26.348;2023-12-28T00:27:32;7.57;;;4.17;;
19525;SDS011;9907;42.676;26.348;2023-12-28T00:30:02;6.53;;;4.50;;
19525;SDS011;9907;42.676;26.348;2023-12-28T00:32:29;6.43;;;4.20;;
19525;SDS011;9907;42.676;26.348;2023-12-28T00:34:55;6.13;;;4.30;;
19525;SDS011;9907;42.676;26.348;2023-12-28T00:37:20;7.67;;;4.03;;
19525;SDS011;9907;42.676;26.348;2023-12-28T00:39:46;5.60;;;4.20;;
19525;SDS011;9907;42.676;26.348;2023-12-28T00:42:13;5.97;;;4.30;;
19525;SDS011;9907;42.676;26.348;2023-12-28T00:44:38;6.17;;;4.63;;
19525;SDS011;9907;42.676;26.348;2023-12-28T00:47:04;8.57;;;4.10;;
19525;SDS011;9907;42.676;26.348;2023-12-28T00:49:31;6.57;;;4.00;;
19525;SDS011;9907;42.676;26.348;2023-12-28T00:51:56;5.93;;;4.13;;
19525;SDS011;9907;42.676;26.348;2023-12-28T00:54:22;5.90;;;3.83;;
19525;SDS011;9907;42.676;26.348;2023-12-28T00:56:47;5.80;;;4.03;;
19525;SDS011;9907;42.676;26.348;2023-12-28T00:59:13;5.37;;;3.60;;
19525;SDS011;9907;42.676;26.348;2023-12-28T01:01:38;5.67;;;3.70;;
19525;SDS011;9907;42.676;26.348;2023-12-28T01:04:03;4.13;;;3.60;;
19525;SDS011;9907;42.676;26.348;2023-12-28T01:06:29;4.80;;;3.73;;
19525;SDS011;9907;42.676;26.348;2023-12-28T01:08:54;4.87;;;3.77;;
19525;SDS011;9907;42.676;26.348;2023-12-28T01:11:20;6.40;;;3.80;;
19525;SDS011;9907;42.676;26.348;2023-12-28T01:13:46;4.17;;;3.53;;
19525;SDS011;9907;42.676;26.348;2023-12-28T01:16:14;6.30;;;3.83;;
19525;SDS011;9907;42.676;26.348;2023-12-28T01:18:40;5.23;;;3.67;;
19525;SDS011;9907;42.676;26.348;2023-12-28T01:21:07;7.47;;;4.23;;
19525;SDS011;9907;42.676;26.348;2023-12-28T01:23:32;8.13;;;4.30;;
19525;SDS011;9907;42.676;26.348;2023-12-28T01:25:58;5.80;;;4.10;;
19525;SDS011;9907;42.676;26.348;2023-12-28T01:28:24;5.77;;;3.80;;
19525;SDS011;9907;42.676;26.348;2023-12-28T01:30:50;5.37;;;4.13;;
19525;SDS011;9907;42.676;26.348;2023-12-28T01:33:15;7.07;;;4.80;;
19525;SDS011;9907;42.676;26.348;2023-12-28T01:35:41;4.43;;;4.03;;
19525;SDS011;9907;42.676;26.348;2023-12-28T01:38:07;7.13;;;4.03;;
19525;SDS011;9907;42.676;26.348;2023-12-28T01:40:32;5.47;;;4.20;;
19525;SDS011;9907;42.676;26.348;2023-12-28T01:42:58;5.07;;;3.70;;
19525;SDS011;9907;42.676;26.348;2023-12-28T01:45:23;4.70;;;3.90;;
19525;SDS011;9907;42.676;26.348;2023-12-28T01:47:49;5.10;;;4.20;;
19525;SDS011;9907;42.676;26.348;2023-12-28T01:50:16;4.83;;;3.40;;
19525;SDS011;9907;42.676;26.348;2023-12-28T01:52:41;5.23;;;3.40;;
19525;SDS011;9907;42.676;26.348;2023-12-28T01:55:07;3.80;;;3.40;;
19525;SDS011;9907;42.676;26.348;2023-12-28T01:57:34;4.50;;;3.77;;
19525;SDS011;9907;42.676;26.348;2023-12-28T01:59:59;5.27;;;3.70;;
19525;SDS011;9907;42.676;26.348;2023-12-28T02:02:27;4.27;;;3.70;;
19525;SDS011;9907;42.676;26.348;2023-12-28T02:04:53;5.80;;;4.20;;
19525;SDS011;9907;42.676;26.348;2023-12-28T02:07:20;5.37;;;3.60;;
19525;SDS011;9907;42.676;26.348;2023-12-28T02:09:45;5.47;;;3.57;;
19525;SDS011;9907;42.676;26.348;2023-12-28T02:12:11;4.23;;;3.50;;
19525;SDS011;9907;42.676;26.348;2023-12-28T02:14:37;6.87;;;3.80;;
19525;SDS011;9907;42.676;26.348;2023-12-28T02:20:06;9.03;;;4.40;;
19525;SDS011;9907;42.676;26.348;2023-12-28T02:22:33;7.23;;;4.50;;
19525;SDS011;9907;42.676;26.348;2023-12-28T02:27:36;6.67;;;4.30;;
19525;SDS011;9907;42.676;26.348;2023-12-28T02:30:05;6.43;;;4.30;;
19525;SDS011;9907;42.676;26.348;2023-12-28T02:32:39;5.83;;;4.30;;
19525;SDS011;9907;42.676;26.348;2023-12-28T02:37:43;8.27;;;3.80;;
19525;SDS011;9907;42.676;26.348;2023-12-28T02:40:10;5.87;;;4.17;;
19525;SDS011;9907;42.676;26.348;2023-12-28T02:42:40;5.53;;;3.77;;
19525;SDS011;9907;42.676;26.348;2023-12-28T02:45:06;5.07;;;3.90;;
19525;SDS011;9907;42.676;26.348;2023-12-28T02:47:31;3.23;;;2.93;;
19525;SDS011;9907;42.676;26.348;2023-12-28T02:49:57;4.83;;;3.73;;
19525;SDS011;9907;42.676;26.348;2023-12-28T02:52:24;4.50;;;3.67;;
19525;SDS011;9907;42.676;26.348;2023-12-28T02:54:50;6.67;;;4.10;;
19525;SDS011;9907;42.676;26.348;2023-12-28T02:57:15;5.00;;;3.13;;
19525;SDS011;9907;42.676;26.348;2023-12-28T02:59:44;3.10;;;2.70;;
19525;SDS011;9907;42.676;26.348;2023-12-28T03:02:11;6.87;;;4.33;;
19525;SDS011;9907;42.676;26.348;2023-12-28T03:04:36;8.17;;;4.90;;
19525;SDS011;9907;42.676;26.348;2023-12-28T03:07:02;5.37;;;4.63;;
19525;SDS011;9907;42.676;26.348;2023-12-28T03:09:27;4.57;;;3.40;;
19525;SDS011;9907;42.676;26.348;2023-12-28T03:11:54;4.83;;;3.17;;
19525;SDS011;9907;42.676;26.348;2023-12-28T03:14:19;3.97;;;3.43;;
19525;SDS011;9907;42.676;26.348;2023-12-28T03:16:46;4.90;;;3.73;;
19525;SDS011;9907;42.676;26.348;2023-12-28T03:19:11;5.10;;;3.77;;
19525;SDS011;9907;42.676;26.348;2023-12-28T03:21:40;8.13;;;4.57;;
19525;SDS011;9907;42.676;26.348;2023-12-28T03:24:06;5.43;;;3.70;;
19525;SDS011;9907;42.676;26.348;2023-12-28T03:26:31;10.50;;;6.73;;
19525;SDS011;9907;42.676;26.348;2023-12-28T03:28:57;14.33;;;8.20;;
19525;SDS011;9907;42.676;26.348;2023-12-28T03:31:22;8.77;;;6.23;;
19525;SDS011;9907;42.676;26.348;2023-12-28T03:33:48;6.50;;;4.70;;
19525;SDS011;9907;42.676;26.348;2023-12-28T03:36:20;6.43;;;4.40;;
19525;SDS011;9907;42.676;26.348;2023-12-28T03:38:46;10.30;;;6.27;;
19525;SDS011;9907;42.676;26.348;2023-12-28T03:41:17;8.87;;;5.63;;
19525;SDS011;9907;42.676;26.348;2023-12-28T03:43:44;8.50;;;4.93;;
19525;SDS011;9907;42.676;26.348;2023-12-28T03:46:10;15.47;;;8.27;;
19525;SDS011;9907;42.676;26.348;2023-12-28T03:48:36;15.97;;;9.90;;
19525;SDS011;9907;42.676;26.348;2023-12-28T03:51:02;13.23;;;8.67;;
19525;SDS011;9907;42.676;26.348;2023-12-28T03:53:28;10.93;;;7.93;;
19525;SDS011;9907;42.676;26.348;2023-12-28T03:55:53;13.63;;;9.60;;
19525;SDS011;9907;42.676;26.348;2023-12-28T03:58:19;17.33;;;12.30;;
19525;SDS011;9907;42.676;26.348;2023-12-28T04:00:44;14.80;;;11.07;;
19525;SDS011;9907;42.676;26.348;2023-12-28T04:03:10;15.93;;;11.50;;
19525;SDS011;9907;42.676;26.348;2023-12-28T04:05:35;14.67;;;9.97;;
19525;SDS011;9907;42.676;26.348;2023-12-28T04:08:00;11.73;;;8.53;;
19525;SDS011;9907;42.676;26.348;2023-12-28T04:10:30;10.00;;;7.20;;
19525;SDS011;9907;42.676;26.348;2023-12-28T04:12:56;14.10;;;7.03;;
19525;SDS011;9907;42.676;26.348;2023-12-28T04:15:24;12.50;;;7.20;;
19525;SDS011;9907;42.676;26.348;2023-12-28T04:17:51;11.60;;;6.67;;
19525;SDS011;9907;42.676;26.348;2023-12-28T04:20:16;18.90;;;10.07;;
19525;SDS011;9907;42.676;26.348;2023-12-28T04:22:42;23.70;;;11.37;;
19525;SDS011;9907;42.676;26.348;2023-12-28T04:25:10;27.67;;;10.93;;
19525;SDS011;9907;42.676;26.348;2023-12-28T04:27:36;22.77;;;9.00;;
19525;SDS011;9907;42.676;26.348;2023-12-28T04:30:03;15.13;;;6.87;;
19525;SDS011;9907;42.676;26.348;2023-12-28T04:32:30;12.70;;;6.70;;
19525;SDS011;9907;42.676;26.348;2023-12-28T04:34:56;16.63;;;7.63;;
19525;SDS011;9907;42.676;26.348;2023-12-28T04:37:22;17.37;;;7.90;;
19525;SDS011;9907;42.676;26.348;2023-12-28T04:39:47;13.00;;;5.57;;
19525;SDS011;9907;42.676;26.348;2023-12-28T04:42:12;11.10;;;5.90;;
19525;SDS011;9907;42.676;26.348;2023-12-28T04:44:38;7.73;;;5.03;;
19525;SDS011;9907;42.676;26.348;2023-12-28T04:47:04;10.13;;;5.13;;
19525;SDS011;9907;42.676;26.348;2023-12-28T04:49:29;15.20;;;6.90;;
19525;SDS011;9907;42.676;26.348;2023-12-28T04:51:55;11.93;;;6.57;;
19525;SDS011;9907;42.676;26.348;2023-12-28T04:54:21;7.70;;;5.27;;
19525;SDS011;9907;42.676;26.348;2023-12-28T04:56:46;9.87;;;5.77;;
19525;SDS011;9907;42.676;26.348;2023-12-28T04:59:12;10.07;;;5.97;;
19525;SDS011;9907;42.676;26.348;2023-12-28T05:01:41;20.10;;;9.73;;
19525;SDS011;9907;42.676;26.348;2023-12-28T05:04:10;16.70;;;8.17;;
19525;SDS011;9907;42.676;26.348;2023-12-28T05:06:37;15.40;;;7.67;;
19525;SDS011;9907;42.676;26.348;2023-12-28T05:09:03;10.50;;;5.97;;
19525;SDS011;9907;42.676;26.348;2023-12-28T05:11:32;10.07;;;5.03;;
19525;SDS011;9907;42.676;26.348;2023-12-28T05:13:57;18.13;;;6.90;;
19525;SDS011;9907;42.676;26.348;2023-12-28T05:16:23;11.27;;;5.40;;
19525;SDS011;9907;42.676;26.348;2023-12-28T05:18:48;8.90;;;4.93;;
19525;SDS011;9907;42.676;26.348;2023-12-28T05:21:13;8.23;;;5.20;;
19525;SDS011;9907;42.676;26.348;2023-12-28T05:23:39;8.37;;;5.60;;
19525;SDS011;9907;42.676;26.348;2023-12-28T05:26:05;10.23;;;5.77;;
19525;SDS011;9907;42.676;26.348;2023-12-28T05:28:31;9.40;;;6.40;;
19525;SDS011;9907;42.676;26.348;2023-12-28T05:30:57;10.80;;;6.83;;
19525;SDS011;9907;42.676;26.348;2023-12-28T05:33:24;8.67;;;6.40;;
19525;SDS011;9907;42.676;26.348;2023-12-28T05:35:50;12.03;;;6.70;;
19525;SDS011;9907;42.676;26.348;2023-12-28T05:38:15;14.33;;;7.90;;
19525;SDS011;9907;42.676;26.348;2023-12-28T05:40:41;11.40;;;7.13;;
19525;SDS011;9907;42.676;26.348;2023-12-28T05:43:07;12.07;;;7.37;;
19525;SDS011;9907;42.676;26.348;2023-12-28T05:45:33;11.57;;;6.40;;
19525;SDS011;9907;42.676;26.348;2023-12-28T05:47:59;8.17;;;5.63;;
19525;SDS011;9907;42.676;26.348;2023-12-28T05:50:24;12.03;;;6.27;;
19525;SDS011;9907;42.676;26.348;2023-12-28T05:52:50;11.50;;;7.23;;
19525;SDS011;9907;42.676;26.348;2023-12-28T05:55:15;23.63;;;10.07;;
19525;SDS011;9907;42.676;26.348;2023-12-28T05:57:40;27.80;;;12.53;;
19525;SDS011;9907;42.676;26.348;2023-12-28T06:00:06;26.60;;;11.67;;
19525;SDS011;9907;42.676;26.348;2023-12-28T06:02:32;17.80;;;9.53;;
19525;SDS011;9907;42.676;26.348;2023-12-28T06:04:57;18.57;;;9.10;;
19525;SDS011;9907;42.676;26.348;2023-12-28T06:07:23;11.00;;;7.40;;
19525;SDS011;9907;42.676;26.348;2023-12-28T06:09:48;12.30;;;8.87;;
19525;SDS011;9907;42.676;26.348;2023-12-28T06:12:14;14.93;;;9.03;;
19525;SDS011;9907;42.676;26.348;2023-12-28T06:14:39;16.37;;;8.47;;
19525;SDS011;9907;42.676;26.348;2023-12-28T06:17:05;13.93;;;8.97;;
19525;SDS011;9907;42.676;26.348;2023-12-28T06:19:30;13.83;;;8.63;;
19525;SDS011;9907;42.676;26.348;2023-12-28T06:21:56;16.70;;;10.93;;
19525;SDS011;9907;42.676;26.348;2023-12-28T06:24:23;16.37;;;8.67;;
19525;SDS011;9907;42.676;26.348;2023-12-28T06:26:49;13.53;;;7.60;;
19525;SDS011;9907;42.676;26.348;2023-12-28T06:29:14;12.70;;;8.60;;
19525;SDS011;9907;42.676;26.348;2023-12-28T06:31:39;11.97;;;7.27;;
19525;SDS011;9907;42.676;26.348;2023-12-28T06:34:06;11.60;;;6.47;;
19525;SDS011;9907;42.676;26.348;2023-12-28T06:36:32;12.10;;;7.20;;
19525;SDS011;9907;42.676;26.348;2023-12-28T06:38:58;15.33;;;7.60;;
19525;SDS011;9907;42.676;26.348;2023-12-28T06:41:24;10.47;;;8.30;;
19525;SDS011;9907;42.676;26.348;2023-12-28T06:43:50;13.50;;;8.83;;
19525;SDS011;9907;42.676;26.348;2023-12-28T06:46:16;12.90;;;9.17;;
19525;SDS011;9907;42.676;26.348;2023-12-28T06:48:43;12.77;;;8.10;;
19525;SDS011;9907;42.676;26.348;2023-12-28T06:51:18;12.07;;;8.33;;
19525;SDS011;9907;42.676;26.348;2023-12-28T06:53:47;9.57;;;7.27;;
19525;SDS011;9907;42.676;26.348;2023-12-28T06:56:14;11.77;;;7.37;;
19525;SDS011;9907;42.676;26.348;2023-12-28T06:58:40;10.03;;;7.40;;
19525;SDS011;9907;42.676;26.348;2023-12-28T07:01:06;11.50;;;7.63;;
19525;SDS011;9907;42.676;26.348;2023-12-28T07:03:32;8.83;;;7.70;;
19525;SDS011;9907;42.676;26.348;2023-12-28T07:05:58;9.47;;;7.00;;
19525;SDS011;9907;42.676;26.348;2023-12-28T07:08:24;12.20;;;7.43;;
19525;SDS011;9907;42.676;26.348;2023-12-28T07:10:49;13.70;;;8.70;;
19525;SDS011;9907;42.676;26.348;2023-12-28T07:13:16;13.53;;;8.87;;
19525;SDS011;9907;42.676;26.348;2023-12-28T07:15:42;15.27;;;8.03;;
19525;SDS011;9907;42.676;26.348;2023-12-28T07:18:07;11.23;;;8.00;;
19525;SDS011;9907;42.676;26.348;2023-12-28T07:20:33;15.43;;;10.33;;
19525;SDS011;9907;42.676;26.348;2023-12-28T07:22:58;15.33;;;10.37;;
19525;SDS011;9907;42.676;26.348;2023-12-28T07:25:24;12.97;;;8.77;;
19525;SDS011;9907;42.676;26.348;2023-12-28T07:27:49;13.67;;;9.17;;
19525;SDS011;9907;42.676;26.348;2023-12-28T07:30:14;12.13;;;8.40;;
19525;SDS011;9907;42.676;26.348;2023-12-28T07:32:41;11.90;;;8.30;;
19525;SDS011;9907;42.676;26.348;2023-12-28T07:35:07;13.47;;;7.87;;
19525;SDS011;9907;42.676;26.348;2023-12-28T07:37:33;11.00;;;8.67;;
19525;SDS011;9907;42.676;26.348;2023-12-28T07:39:59;13.03;;;8.97;;
19525;SDS011;9907;42.676;26.348;2023-12-28T07:42:24;8.23;;;7.10;;
19525;SDS011;9907;42.676;26.348;2023-12-28T07:44:50;9.97;;;8.37;;
19525;SDS011;9907;42.676;26.348;2023-12-28T07:47:15;12.03;;;7.87;;
19525;SDS011;9907;42.676;26.348;2023-12-28T07:49:41;11.67;;;6.80;;
19525;SDS011;9907;42.676;26.348;2023-12-28T07:52:07;8.87;;;7.43;;
19525;SDS011;9907;42.676;26.348;2023-12-28T07:54:32;8.60;;;7.70;;
19525;SDS011;9907;42.676;26.348;2023-12-28T07:56:58;7.20;;;6.50;;
19525;SDS011;9907;42.676;26.348;2023-12-28T07:59:26;9.23;;;5.93;;
19525;SDS011;9907;42.676;26.348;2023-12-28T08:01:51;8.50;;;6.27;;
19525;SDS011;9907;42.676;26.348;2023-12-28T08:04:16;8.27;;;6.13;;
19525;SDS011;9907;42.676;26.348;2023-12-28T08:06:42;7.60;;;6.77;;
19525;SDS011;9907;42.676;26.348;2023-12-28T08:09:08;14.73;;;9.57;;
19525;SDS011;9907;42.676;26.348;2023-12-28T08:11:34;8.17;;;7.30;;
19525;SDS011;9907;42.676;26.348;2023-12-28T08:13:59;8.20;;;7.20;;
19525;SDS011;9907;42.676;26.348;2023-12-28T08:16:25;10.20;;;7.73;;
19525;SDS011;9907;42.676;26.348;2023-12-28T08:18:51;14.97;;;9.23;;
19525;SDS011;9907;42.676;26.348;2023-12-28T08:21:17;19.67;;;9.20;;
19525;SDS011;9907;42.676;26.348;2023-12-28T08:23:42;14.43;;;9.77;;
19525;SDS011;9907;42.676;26.348;2023-12-28T08:26:08;18.10;;;10.50;;
19525;SDS011;9907;42.676;26.348;2023-12-28T08:28:35;15.33;;;11.47;;
19525;SDS011;9907;42.676;26.348;2023-12-28T08:31:02;13.07;;;10.80;;
19525;SDS011;9907;42.676;26.348;2023-12-28T08:33:28;14.73;;;10.60;;
19525;SDS011;9907;42.676;26.348;2023-12-28T08:36:00;11.97;;;9.23;;
19525;SDS011;9907;42.676;26.348;2023-12-28T08:38:28;12.77;;;9.03;;
19525;SDS011;9907;42.676;26.348;2023-12-28T08:40:54;11.80;;;9.00;;
19525;SDS011;9907;42.676;26.348;2023-12-28T08:43:20;14.27;;;9.57;;
19525;SDS011;9907;42.676;26.348;2023-12-28T08:45:45;13.27;;;9.40;;
19525;SDS011;9907;42.676;26.348;2023-12-28T08:48:11;13.67;;;9.27;;
19525;SDS011;9907;42.676;26.348;2023-12-28T08:50:36;11.80;;;9.10;;
19525;SDS011;9907;42.676;26.348;2023-12-28T08:53:02;15.10;;;9.00;;
19525;SDS011;9907;42.676;26.348;2023-12-28T08:55:27;12.10;;;8.40;;
19525;SDS011;9907;42.676;26.348;2023-12-28T08:57:53;12.83;;;8.47;;
19525;SDS011;9907;42.676;26.348;2023-12-28T09:00:18;9.63;;;8.23;;
19525;SDS011;9907;42.676;26.348;2023-12-28T09:02:44;12.60;;;9.60;;
19525;SDS011;9907;42.676;26.348;2023-12-28T09:05:09;12.93;;;7.97;;
19525;SDS011;9907;42.676;26.348;2023-12-28T09:07:35;11.57;;;7.97;;
19525;SDS011;9907;42.676;26.348;2023-12-28T09:10:09;9.87;;;7.13;;
19525;SDS011;9907;42.676;26.348;2023-12-28T09:12:35;13.17;;;7.60;;
19525;SDS011;9907;42.676;26.348;2023-12-28T09:15:01;16.63;;;7.97;;
19525;SDS011;9907;42.676;26.348;2023-12-28T09:17:26;13.20;;;8.37;;
19525;SDS011;9907;42.676;26.348;2023-12-28T09:19:51;12.13;;;7.77;;
19525;SDS011;9907;42.676;26.348;2023-12-28T09:22:17;14.60;;;7.97;;
19525;SDS011;9907;42.676;26.348;2023-12-28T09:24:42;13.57;;;7.60;;
19525;SDS011;9907;42.676;26.348;2023-12-28T09:27:08;11.17;;;6.13;;
19525;SDS011;9907;42.676;26.348;2023-12-28T09:29:34;9.10;;;5.97;;
19525;SDS011;9907;42.676;26.348;2023-12-28T09:32:00;7.37;;;4.73;;
19525;SDS011;9907;42.676;26.348;2023-12-28T09:34:25;7.37;;;4.00;;
19525;SDS011;9907;42.676;26.348;2023-12-28T09:36:51;5.77;;;3.17;;
19525;SDS011;9907;42.676;26.348;2023-12-28T09:39:16;6.57;;;3.53;;
19525;SDS011;9907;42.676;26.348;2023-12-28T09:41:43;5.17;;;3.43;;
19525;SDS011;9907;42.676;26.348;2023-12-28T09:44:14;3.53;;;2.77;;
19525;SDS011;9907;42.676;26.348;2023-12-28T09:46:43;5.40;;;4.10;;
19525;SDS011;9907;42.676;26.348;2023-12-28T09:49:11;5.37;;;3.50;;
19525;SDS011;9907;42.676;26.348;2023-12-28T09:51:37;6.83;;;3.90;;
19525;SDS011;9907;42.676;26.348;2023-12-28T09:54:03;7.40;;;4.27;;
19525;SDS011;9907;42.676;26.348;2023-12-28T09:56:29;5.37;;;3.57;;
19525;SDS011;9907;42.676;26.348;2023-12-28T09:58:59;6.00;;;3.63;;
19525;SDS011;9907;42.676;26.348;2023-12-28T10:01:26;6.63;;;4.40;;
19525;SDS011;9907;42.676;26.348;2023-12-28T10:03:52;6.67;;;3.73;;
19525;SDS011;9907;42.676;26.348;2023-12-28T10:06:17;7.20;;;4.73;;
19525;SDS011;9907;42.676;26.348;2023-12-28T10:08:46;4.20;;;3.80;;
19525;SDS011;9907;42.676;26.348;2023-12-28T10:11:14;4.73;;;3.37;;
19525;SDS011;9907;42.676;26.348;2023-12-28T10:13:42;4.33;;;3.70;;
19525;SDS011;9907;42.676;26.348;2023-12-28T10:16:11;8.13;;;4.33;;
19525;SDS011;9907;42.676;26.348;2023-12-28T10:18:41;7.63;;;5.43;;
19525;SDS011;9907;42.676;26.348;2023-12-28T10:21:07;9.90;;;5.50;;
19525;SDS011;9907;42.676;26.348;2023-12-28T10:23:33;13.93;;;9.77;;
19525;SDS011;9907;42.676;26.348;2023-12-28T10:25:59;11.93;;;7.50;;
19525;SDS011;9907;42.676;26.348;2023-12-28T10:28:25;8.93;;;6.03;;
19525;SDS011;9907;42.676;26.348;2023-12-28T10:30:56;7.17;;;4.33;;
19525;SDS011;9907;42.676;26.348;2023-12-28T10:33:22;8.97;;;4.23;;
19525;SDS011;9907;42.676;26.348;2023-12-28T10:35:49;4.70;;;3.50;;
19525;SDS011;9907;42.676;26.348;2023-12-28T10:38:15;12.40;;;4.57;;
19525;SDS011;9907;42.676;26.348;2023-12-28T10:40:43;4.70;;;3.87;;
19525;SDS011;9907;42.676;26.348;2023-12-28T10:43:09;6.70;;;4.80;;
19525;SDS011;9907;42.676;26.348;2023-12-28T10:45:39;9.60;;;5.20;;
19525;SDS011;9907;42.676;26.348;2023-12-28T10:48:12;10.40;;;6.40;;
19525;SDS011;9907;42.676;26.348;2023-12-28T10:59:29;9.70;;;6.30;;
19525;SDS011;9907;42.676;26.348;2023-12-28T11:02:04;8.80;;;5.03;;
19525;SDS011;9907;42.676;26.348;2023-12-28T11:04:42;7.53;;;6.03;;
19525;SDS011;9907;42.676;26.348;2023-12-28T11:07:13;5.90;;;4.50;;
19525;SDS011;9907;42.676;26.348;2023-12-28T11:09:43;6.00;;;4.83;;
19525;SDS011;9907;42.676;26.348;2023-12-28T11:12:10;4.70;;;3.50;;
19525;SDS011;9907;42.676;26.348;2023-12-28T11:14:39;4.20;;;3.43;;
19525;SDS011;9907;42.676;26.348;2023-12-28T11:17:05;7.80;;;4.23;;
19525;SDS011;9907;42.676;26.348;2023-12-28T11:19:31;8.33;;;6.00;;
19525;SDS011;9907;42.676;26.348;2023-12-28T11:21:59;11.33;;;7.20;;
19525;SDS011;9907;42.676;26.348;2023-12-28T11:24:27;11.33;;;6.70;;
19525;SDS011;9907;42.676;26.348;2023-12-28T11:26:53;7.27;;;4.87;;
19525;SDS011;9907;42.676;26.348;2023-12-28T11:29:22;6.60;;;5.13;;
19525;SDS011;9907;42.676;26.348;2023-12-28T11:31:52;11.63;;;8.53;;
19525;SDS011;9907;42.676;26.348;2023-12-28T11:34:19;10.83;;;4.80;;
19525;SDS011;9907;42.676;26.348;2023-12-28T11:36:49;6.50;;;3.87;;
19525;SDS011;9907;42.676;26.348;2023-12-28T11:39:41;5.50;;;3.83;;
19525;SDS011;9907;42.676;26.348;2023-12-28T11:42:08;8.73;;;5.33;;
19525;SDS011;9907;42.676;26.348;2023-12-28T11:44:41;11.67;;;7.67;;
19525;SDS011;9907;42.676;26.348;2023-12-28T11:47:27;7.50;;;4.83;;
19525;SDS011;9907;42.676;26.348;2023-12-28T11:49:53;10.97;;;5.53;;
19525;SDS011;9907;42.676;26.348;2023-12-28T11:54:56;9.07;;;6.03;;
19525;SDS011;9907;42.676;26.348;2023-12-28T11:57:22;11.40;;;5.47;;
19525;SDS011;9907;42.676;26.348;2023-12-28T11:59:53;5.33;;;3.60;;
19525;SDS011;9907;42.676;26.348;2023-12-28T12:02:23;6.63;;;4.17;;
19525;SDS011;9907;42.676;26.348;2023-12-28T12:04:49;7.80;;;4.70;;
19525;SDS011;9907;42.676;26.348;2023-12-28T12:07:18;9.10;;;3.73;;
19525;SDS011;9907;42.676;26.348;2023-12-28T12:09:43;6.50;;;4.07;;
19525;SDS011;9907;42.676;26.348;2023-12-28T12:12:09;7.30;;;4.00;;
19525;SDS011;9907;42.676;26.348;2023-12-28T12:14:35;8.83;;;4.70;;
19525;SDS011;9907;42.676;26.348;2023-12-28T12:17:01;5.17;;;3.40;;
19525;SDS011;9907;42.676;26.348;2023-12-28T12:19:27;4.50;;;3.37;;
19525;SDS011;9907;42.676;26.348;2023-12-28T12:21:53;6.33;;;3.50;;
19525;SDS011;9907;42.676;26.348;2023-12-28T12:24:19;5.83;;;3.57;;
19525;SDS011;9907;42.676;26.348;2023-12-28T12:26:46;5.97;;;3.97;;
19525;SDS011;9907;42.676;26.348;2023-12-28T12:29:13;4.90;;;3.93;;
19525;SDS011;9907;42.676;26.348;2023-12-28T12:31:43;7.03;;;4.20;;
19525;SDS011;9907;42.676;26.348;2023-12-28T12:34:11;5.63;;;4.47;;
19525;SDS011;9907;42.676;26.348;2023-12-28T12:36:40;6.63;;;4.47;;
19525;SDS011;9907;42.676;26.348;2023-12-28T12:39:06;6.10;;;4.37;;
19525;SDS011;9907;42.676;26.348;2023-12-28T12:41:32;6.07;;;4.20;;
19525;SDS011;9907;42.676;26.348;2023-12-28T12:44:01;7.53;;;4.30;;
19525;SDS011;9907;42.676;26.348;2023-12-28T12:46:30;5.10;;;4.30;;
19525;SDS011;9907;42.676;26.348;2023-12-28T12:48:56;5.83;;;4.30;;
19525;SDS011;9907;42.676;26.348;2023-12-28T12:51:24;6.80;;;4.30;;
19525;SDS011;9907;42.676;26.348;2023-12-28T12:54:00;4.67;;;3.70;;
19525;SDS011;9907;42.676;26.348;2023-12-28T12:56:28;5.20;;;4.33;;
19525;SDS011;9907;42.676;26.348;2023-12-28T12:58:55;8.00;;;5.20;;
19525;SDS011;9907;42.676;26.348;2023-12-28T13:01:21;6.87;;;4.50;;
19525;SDS011;9907;42.676;26.348;2023-12-28T13:03:52;5.90;;;3.97;;
19525;SDS011;9907;42.676;26.348;2023-12-28T13:06:17;6.63;;;4.17;;
19525;SDS011;9907;42.676;26.348;2023-12-28T13:08:44;6.83;;;4.80;;
19525;SDS011;9907;42.676;26.348;2023-12-28T13:11:10;5.73;;;4.17;;
19525;SDS011;9907;42.676;26.348;2023-12-28T13:13:37;6.30;;;4.77;;
19525;SDS011;9907;42.676;26.348;2023-12-28T13:16:02;5.27;;;3.97;;
19525;SDS011;9907;42.676;26.348;2023-12-28T13:18:28;5.60;;;4.07;;
19525;SDS011;9907;42.676;26.348;2023-12-28T13:20:54;5.23;;;3.40;;
19525;SDS011;9907;42.676;26.348;2023-12-28T13:23:20;6.27;;;4.53;;
19525;SDS011;9907;42.676;26.348;2023-12-28T13:25:45;5.37;;;3.83;;
19525;SDS011;9907;42.676;26.348;2023-12-28T13:28:11;4.63;;;3.30;;
19525;SDS011;9907;42.676;26.348;2023-12-28T13:30:38;5.97;;;4.20;;
19525;SDS011;9907;42.676;26.348;2023-12-28T13:33:04;5.50;;;3.90;;
19525;SDS011;9907;42.676;26.348;2023-12-28T13:35:30;6.03;;;4.30;;
19525;SDS011;9907;42.676;26.348;2023-12-28T13:37:59;6.87;;;4.57;;
19525;SDS011;9907;42.676;26.348;2023-12-28T13:40:26;6.47;;;4.47;;
19525;SDS011;9907;42.676;26.348;2023-12-28T13:42:52;5.20;;;4.20;;
19525;SDS011;9907;42.676;26.348;2023-12-28T13:45:17;7.57;;;4.67;;
19525;SDS011;9907;42.676;26.348;2023-12-28T13:47:43;8.50;;;4.87;;
19525;SDS011;9907;42.676;26.348;2023-12-28T13:50:08;8.37;;;4.60;;
19525;SDS011;9907;42.676;26.348;2023-12-28T13:52:35;5.20;;;4.47;;
19525;SDS011;9907;42.676;26.348;2023-12-28T13:55:00;7.53;;;5.00;;
19525;SDS011;9907;42.676;26.348;2023-12-28T13:57:26;4.50;;;4.00;;
19525;SDS011;9907;42.676;26.348;2023-12-28T13:59:51;4.70;;;3.57;;
19525;SDS011;9907;42.676;26.348;2023-12-28T14:02:17;6.70;;;3.57;;
19525;SDS011;9907;42.676;26.348;2023-12-28T14:04:42;3.83;;;3.07;;
19525;SDS011;9907;42.676;26.348;2023-12-28T14:07:08;4.57;;;3.40;;
19525;SDS011;9907;42.676;26.348;2023-12-28T14:09:33;3.90;;;3.10;;
19525;SDS011;9907;42.676;26.348;2023-12-28T14:12:01;7.97;;;4.73;;
19525;SDS011;9907;42.676;26.348;2023-12-28T14:14:26;8.67;;;5.13;;
19525;SDS011;9907;42.676;26.348;2023-12-28T14:16:51;7.03;;;4.30;;
19525;SDS011;9907;42.676;26.348;2023-12-28T14:19:17;8.03;;;4.47;;
19525;SDS011;9907;42.676;26.348;2023-12-28T14:21:42;6.43;;;4.37;;
19525;SDS011;9907;42.676;26.348;2023-12-28T14:24:09;5.10;;;3.17;;
19525;SDS011;9907;42.676;26.348;2023-12-28T14:26:35;4.33;;;3.43;;
19525;SDS011;9907;42.676;26.348;2023-12-28T14:29:09;3.97;;;3.10;;
19525;SDS011;9907;42.676;26.348;2023-12-28T14:31:35;5.73;;;3.50;;
19525;SDS011;9907;42.676;26.348;2023-12-28T14:34:01;10.07;;;3.80;;
19525;SDS011;9907;42.676;26.348;2023-12-28T14:36:32;4.67;;;4.07;;
19525;SDS011;9907;42.676;26.348;2023-12-28T14:38:59;6.73;;;4.00;;
19525;SDS011;9907;42.676;26.348;2023-12-28T14:41:26;9.53;;;4.20;;
19525;SDS011;9907;42.676;26.348;2023-12-28T14:43:52;6.47;;;4.97;;
19525;SDS011;9907;42.676;26.348;2023-12-28T14:46:18;6.03;;;4.50;;
19525;SDS011;9907;42.676;26.348;2023-12-28T14:48:44;8.33;;;4.03;;
19525;SDS011;9907;42.676;26.348;2023-12-28T14:51:09;7.47;;;3.77;;
19525;SDS011;9907;42.676;26.348;2023-12-28T14:53:35;6.27;;;4.47;;
19525;SDS011;9907;42.676;26.348;2023-12-28T14:56:00;8.73;;;4.63;;
19525;SDS011;9907;42.676;26.348;2023-12-28T14:58:26;7.43;;;4.40;;